createdAt,value
2023-07-25T00:00:40.634Z,99382.88
2023-07-25T00:03:07.324Z,99360.91
2023-07-25T00:05:33.944Z,99348.00
2023-07-25T00:08:00.523Z,99309.78
2023-07-25T00:10:27.110Z,99269.16
2023-07-25T00:12:56.185Z,99265.00
2023-07-25T00:15:23.140Z,99263.34
2023-07-25T00:17:50.998Z,99250.69
2023-07-25T00:20:17.864Z,99250.09
2023-07-25T00:22:44.540Z,99255.84
2023-07-25T00:25:11.499Z,99275.56
2023-07-25T00:27:38.156Z,99270.84
2023-07-25T00:30:05.573Z,99272.75
2023-07-25T00:32:34.873Z,99277.41
2023-07-25T00:35:02.998Z,99280.66
2023-07-25T00:37:30.648Z,99303.13
2023-07-25T00:39:57.770Z,99312.06
2023-07-25T00:42:24.885Z,99337.66
2023-07-25T00:44:51.974Z,99353.38
2023-07-25T00:47:23.694Z,99361.47
2023-07-25T00:49:52.010Z,99377.44
2023-07-25T00:52:19.012Z,99374.22
2023-07-25T00:54:48.723Z,99372.03
2023-07-25T00:57:19.719Z,99410.25
2023-07-25T00:59:47.676Z,99415.41
2023-07-25T01:02:15.425Z,99448.59
2023-07-25T01:04:43.094Z,99447.78
2023-07-25T01:07:13.501Z,99457.59
2023-07-25T01:09:50.089Z,99455.94
2023-07-25T01:12:16.697Z,99450.56
2023-07-25T01:14:44.561Z,99446.06
2023-07-25T01:17:16.599Z,99455.44
2023-07-25T01:19:45.401Z,99476.94
2023-07-25T01:22:12.691Z,99477.47
2023-07-25T01:24:47.126Z,99472.44
2023-07-25T01:27:16.999Z,99465.75
2023-07-25T01:29:44.238Z,99462.28
2023-07-25T01:32:11.334Z,99443.72
2023-07-25T01:34:38.224Z,99425.09
2023-07-25T01:37:07.170Z,99434.63
2023-07-25T01:39:33.857Z,99423.75
2023-07-25T01:42:00.438Z,99416.97
2023-07-25T01:44:26.991Z,99372.19
2023-07-25T01:46:56.205Z,99349.56
2023-07-25T01:49:22.818Z,99316.56
2023-07-25T01:51:49.452Z,99302.13
2023-07-25T01:54:17.972Z,99303.56
2023-07-25T01:56:44.977Z,99272.50
2023-07-25T01:59:13.394Z,99251.03
2023-07-25T02:01:40.178Z,99242.00
2023-07-25T02:04:07.126Z,99229.75
2023-07-25T02:06:33.760Z,99256.16
2023-07-25T02:09:00.341Z,99265.84
2023-07-25T02:11:26.972Z,99238.06
2023-07-25T02:13:53.540Z,99249.84
2023-07-25T02:16:20.961Z,99278.75
2023-07-25T02:18:47.603Z,99343.41
2023-07-25T02:21:14.289Z,99321.31
2023-07-25T02:23:40.901Z,99320.38
2023-07-25T02:26:07.529Z,99333.56
2023-07-25T02:28:34.092Z,99318.66
2023-07-25T02:31:00.684Z,99257.41
2023-07-25T02:33:27.323Z,99148.09
2023-07-25T02:35:53.964Z,99121.78
2023-07-25T02:38:20.585Z,99185.53
2023-07-25T02:40:47.508Z,99136.50
2023-07-25T02:43:14.179Z,99107.03
2023-07-25T02:45:40.831Z,99128.53
2023-07-25T02:48:07.429Z,99123.91
2023-07-25T02:50:34.043Z,99125.56
2023-07-25T02:53:00.661Z,99139.25
2023-07-25T02:55:27.292Z,99133.03
2023-07-25T02:57:53.918Z,99151.44
2023-07-25T03:00:20.566Z,99145.63
2023-07-25T03:02:47.219Z,99165.84
2023-07-25T03:05:13.928Z,99188.78
2023-07-25T03:07:40.502Z,99209.66
2023-07-25T03:10:07.845Z,99218.34
2023-07-25T03:12:34.551Z,99209.78
2023-07-25T03:15:01.561Z,99220.09
2023-07-25T03:17:28.752Z,99217.69
2023-07-25T03:19:55.402Z,99227.28
2023-07-25T03:22:22.206Z,99213.34
2023-07-25T03:24:49.701Z,99202.94
2023-07-25T03:27:17.474Z,99213.13
2023-07-25T03:29:44.195Z,99215.28
2023-07-25T03:32:10.972Z,99220.75
2023-07-25T03:34:37.631Z,99234.41
2023-07-25T03:37:04.527Z,99236.59
2023-07-25T03:39:31.304Z,99246.63
2023-07-25T03:41:57.978Z,99249.91
2023-07-25T03:44:24.594Z,99251.13
2023-07-25T03:46:51.311Z,99232.16
2023-07-25T03:49:18.053Z,99226.84
2023-07-25T03:51:44.727Z,99228.28
2023-07-25T03:54:11.521Z,99211.44
2023-07-25T03:56:38.151Z,99212.50
2023-07-25T03:59:04.857Z,99217.22
2023-07-25T04:01:32.082Z,99220.16
2023-07-25T04:03:59.054Z,99223.75
2023-07-25T04:06:26.123Z,99236.78
2023-07-25T04:08:52.808Z,99239.75
2023-07-25T04:11:19.421Z,99229.88
2023-07-25T04:13:46.118Z,99221.69
2023-07-25T04:16:12.807Z,99232.75
2023-07-25T04:18:39.529Z,99231.69
2023-07-25T04:21:06.156Z,99228.53
2023-07-25T04:23:32.765Z,99219.03
2023-07-25T04:25:59.397Z,99214.47
2023-07-25T04:28:25.999Z,99216.59
2023-07-25T04:30:52.654Z,99212.19
2023-07-25T04:33:19.264Z,99223.34
2023-07-25T04:35:46.559Z,99212.56
2023-07-25T04:38:14.787Z,99224.72
2023-07-25T04:40:42.850Z,99231.41
2023-07-25T04:43:09.463Z,99230.91
2023-07-25T04:45:36.736Z,99242.56
2023-07-25T04:48:03.636Z,99240.03
2023-07-25T04:50:30.420Z,99234.94
2023-07-25T04:52:57.033Z,99239.13
2023-07-25T04:55:23.680Z,99224.53
2023-07-25T04:57:52.429Z,99224.09
2023-07-25T05:00:19.101Z,99205.91
2023-07-25T05:02:48.027Z,99212.38
2023-07-25T05:05:14.684Z,99209.78
2023-07-25T05:07:41.290Z,99201.09
2023-07-25T05:10:08.435Z,99174.50
2023-07-25T05:12:35.041Z,99157.03
2023-07-25T05:15:01.601Z,99162.50
2023-07-25T05:17:28.208Z,99171.06
2023-07-25T05:19:54.837Z,99176.41
2023-07-25T05:22:21.509Z,99176.78
2023-07-25T05:24:48.140Z,99163.25
2023-07-25T05:27:14.898Z,99161.50
2023-07-25T05:29:41.533Z,99166.03
2023-07-25T05:32:08.525Z,99164.25
2023-07-25T05:34:35.159Z,99161.88
2023-07-25T05:37:02.203Z,99157.13
2023-07-25T05:39:28.818Z,99155.09
2023-07-25T05:41:55.421Z,99162.13
2023-07-25T05:44:22.032Z,99155.47
2023-07-25T05:46:48.691Z,99166.28
2023-07-25T05:49:15.330Z,99170.31
2023-07-25T05:51:41.924Z,99179.25
2023-07-25T05:54:08.900Z,99193.16
2023-07-25T05:56:35.525Z,99191.72
2023-07-25T05:59:02.198Z,99199.59
2023-07-25T06:01:28.879Z,99193.50
2023-07-25T06:03:55.641Z,99196.78
2023-07-25T06:06:22.375Z,99201.88
2023-07-25T06:08:48.968Z,99197.34
2023-07-25T06:11:16.849Z,99186.50
2023-07-25T06:13:43.620Z,99176.78
2023-07-25T06:16:10.249Z,99174.72
2023-07-25T06:18:36.827Z,99173.50
2023-07-25T06:21:03.479Z,99176.22
2023-07-25T06:23:30.067Z,99170.06
2023-07-25T06:25:56.682Z,99166.56
2023-07-25T06:28:23.236Z,99158.19
2023-07-25T06:30:49.998Z,99162.69
2023-07-25T06:33:16.842Z,99156.94
2023-07-25T06:35:43.493Z,99152.88
2023-07-25T06:38:10.132Z,99151.25
2023-07-25T06:40:36.797Z,99143.13
2023-07-25T06:43:03.501Z,99133.63
2023-07-25T06:45:30.182Z,99138.13
2023-07-25T06:47:56.851Z,99129.44
2023-07-25T06:50:23.524Z,99131.19
2023-07-25T06:52:50.186Z,99121.22
2023-07-25T06:55:20.214Z,99117.75
2023-07-25T06:57:47.278Z,99108.56
2023-07-25T07:00:14.837Z,99110.03
2023-07-25T07:02:42.724Z,99106.00
2023-07-25T07:05:28.955Z,99097.84
2023-07-25T07:07:56.005Z,99096.81
2023-07-25T07:10:22.710Z,99085.63
2023-07-25T07:12:49.604Z,99078.94
2023-07-25T07:15:16.422Z,99061.13
2023-07-25T07:17:43.331Z,99065.31
2023-07-25T07:20:10.524Z,99064.91
2023-07-25T07:22:37.411Z,99061.94
2023-07-25T07:25:04.498Z,99062.31
2023-07-25T07:27:31.085Z,99051.19
2023-07-25T07:29:57.710Z,99049.59
2023-07-25T07:32:24.382Z,99041.16
2023-07-25T07:34:50.999Z,99041.78
2023-07-25T07:37:17.609Z,99044.56
2023-07-25T07:39:44.278Z,99039.63
2023-07-25T07:42:10.871Z,99047.16
2023-07-25T07:44:37.482Z,99047.44
2023-07-25T07:47:05.465Z,99053.22
2023-07-25T07:49:35.076Z,99064.00
2023-07-25T07:52:13.256Z,99060.97
2023-07-25T07:54:44.042Z,99052.72
2023-07-25T07:57:10.680Z,99052.72
2023-07-25T07:59:37.326Z,99043.31
2023-07-25T08:02:04.126Z,99050.75
2023-07-25T08:04:31.690Z,99066.16
2023-07-25T08:06:58.433Z,99055.69
2023-07-25T08:09:28.468Z,99055.34
2023-07-25T08:11:55.113Z,99056.38
2023-07-25T08:14:22.016Z,99059.63
2023-07-25T08:16:49.066Z,99056.81
2023-07-25T08:19:16.595Z,99043.00
2023-07-25T08:21:43.373Z,99036.91
2023-07-25T08:24:10.142Z,99042.91
2023-07-25T08:26:36.847Z,99028.25
2023-07-25T08:29:03.736Z,99027.41
2023-07-25T08:31:30.849Z,99016.06
2023-07-25T08:33:57.975Z,99017.38
2023-07-25T08:36:24.606Z,99018.19
2023-07-25T08:38:51.225Z,99020.88
2023-07-25T08:41:20.262Z,99026.34
2023-07-25T08:43:48.532Z,99024.34
2023-07-25T08:46:19.919Z,99027.66
2023-07-25T08:48:49.116Z,99041.59
2023-07-25T08:51:22.815Z,99027.81
2023-07-25T08:54:06.800Z,99030.53
2023-07-25T08:56:35.962Z,99051.13
2023-07-25T08:59:04.467Z,99076.28
2023-07-25T09:01:32.174Z,99074.34
2023-07-25T09:04:05.015Z,99081.69
2023-07-25T09:06:33.082Z,99094.06
2023-07-25T09:09:00.068Z,99147.72
2023-07-25T09:11:27.375Z,99183.50
2023-07-25T09:13:54.355Z,99290.22
2023-07-25T09:16:21.323Z,99379.31
2023-07-25T09:18:47.970Z,99400.00
2023-07-25T09:21:16.222Z,99364.75
2023-07-25T09:23:55.601Z,99335.53
2023-07-25T09:26:24.436Z,99330.72
2023-07-25T09:28:58.940Z,99322.72
2023-07-25T09:31:28.215Z,99333.72
2023-07-25T09:33:56.576Z,99317.88
2023-07-25T09:36:23.966Z,99316.91
2023-07-25T09:38:55.156Z,99303.91
2023-07-25T09:41:23.876Z,99277.44
2023-07-25T09:43:51.887Z,99286.44
2023-07-25T09:46:19.326Z,99294.41
2023-07-25T09:48:47.985Z,99289.53
2023-07-25T09:51:15.597Z,99260.34
2023-07-25T09:53:50.666Z,99218.28
2023-07-25T09:56:17.493Z,99198.63
2023-07-25T09:58:55.001Z,99183.72
2023-07-25T10:01:31.785Z,99162.59
2023-07-25T10:03:58.927Z,99174.47
2023-07-25T10:06:26.477Z,99178.19
2023-07-25T10:08:54.378Z,99183.19
2023-07-25T10:11:22.756Z,99189.38
2023-07-25T10:13:51.606Z,99205.19
2023-07-25T10:16:20.927Z,99227.66
2023-07-25T10:18:54.542Z,99238.72
2023-07-25T10:21:28.023Z,99234.69
2023-07-25T10:24:04.123Z,99239.72
2023-07-25T10:26:30.883Z,99245.66
2023-07-25T10:29:00.613Z,99254.00
2023-07-25T10:31:34.933Z,99248.03
2023-07-25T10:34:03.525Z,99231.44
2023-07-25T10:36:30.191Z,99217.03
2023-07-25T10:39:07.149Z,99195.59
2023-07-25T10:41:34.274Z,99193.28
2023-07-25T10:44:03.338Z,99192.59
2023-07-25T10:46:33.136Z,99180.78
2023-07-25T10:49:05.339Z,99160.06
2023-07-25T10:51:56.217Z,99152.72
2023-07-25T10:54:25.295Z,99136.69
2023-07-25T10:57:10.428Z,99138.88
2023-07-25T11:00:09.709Z,99166.56
2023-07-25T11:02:40.389Z,99183.19
2023-07-25T11:05:13.190Z,99157.03
2023-07-25T11:08:01.426Z,99169.44
2023-07-25T11:10:30.112Z,99168.03
2023-07-25T11:12:59.045Z,99138.13
2023-07-25T11:15:40.685Z,99116.97
2023-07-25T11:18:12.932Z,99088.56
2023-07-25T11:20:41.993Z,99076.97
2023-07-25T11:23:08.710Z,99075.88
2023-07-25T11:25:35.764Z,99061.41
2023-07-25T11:28:02.370Z,99070.00
2023-07-25T11:30:29.002Z,99058.75
2023-07-25T11:32:55.694Z,99069.22
2023-07-25T11:35:25.473Z,99057.38
2023-07-25T11:38:02.505Z,99054.56
2023-07-25T11:40:30.231Z,99061.25
2023-07-25T11:42:57.934Z,99048.34
2023-07-25T11:45:24.776Z,99037.34
2023-07-25T11:47:52.825Z,99011.25
2023-07-25T11:50:26.787Z,99026.38
2023-07-25T11:52:56.027Z,99044.84
2023-07-25T11:55:22.862Z,99044.66
2023-07-25T11:57:51.881Z,99040.56
2023-07-25T12:00:18.586Z,99032.44
2023-07-25T12:02:45.523Z,99045.22
2023-07-25T12:05:31.705Z,99060.97
2023-07-25T12:08:01.964Z,99070.63
2023-07-25T12:10:33.775Z,99079.69
2023-07-25T12:13:04.760Z,99085.91
2023-07-25T12:15:56.178Z,99075.09
2023-07-25T12:18:26.797Z,99072.50
2023-07-25T12:20:59.484Z,99083.78
2023-07-25T12:23:31.381Z,99082.41
2023-07-25T12:26:00.652Z,99081.75
2023-07-25T12:28:42.962Z,99081.75
2023-07-25T12:31:09.762Z,99080.28
2023-07-25T12:33:36.907Z,99094.22
2023-07-25T12:36:04.872Z,99101.56
2023-07-25T12:38:31.537Z,99087.78
2023-07-25T12:40:58.180Z,99088.03
2023-07-25T12:43:24.897Z,99087.78
2023-07-25T12:45:51.672Z,99072.81
2023-07-25T12:48:18.478Z,99051.81
2023-07-25T12:50:45.154Z,99006.72
2023-07-25T12:53:11.824Z,98964.91
2023-07-25T12:55:38.988Z,98939.88
2023-07-25T12:58:05.786Z,98947.31
2023-07-25T13:00:32.746Z,98922.78
2023-07-25T13:02:59.844Z,98899.22
2023-07-25T13:05:29.723Z,98915.81
2023-07-25T13:07:57.933Z,98915.41
2023-07-25T13:10:25.845Z,98882.84
2023-07-25T13:12:52.843Z,98927.50
2023-07-25T13:15:19.578Z,98944.38
2023-07-25T13:17:46.360Z,98969.00
2023-07-25T13:20:13.055Z,98988.53
2023-07-25T13:22:39.637Z,98959.38
2023-07-25T13:25:06.482Z,98987.19
2023-07-25T13:27:33.086Z,98982.00
2023-07-25T13:30:00.089Z,99001.28
2023-07-25T13:32:26.980Z,99009.25
2023-07-25T13:34:53.663Z,99011.91
2023-07-25T13:37:20.276Z,99025.13
2023-07-25T13:39:46.910Z,99019.50
2023-07-25T13:42:13.573Z,99026.75
2023-07-25T13:44:40.261Z,99034.50
2023-07-25T13:47:07.056Z,99041.59
2023-07-25T13:49:33.660Z,99058.41
2023-07-25T13:52:02.790Z,99050.06
2023-07-25T13:54:31.460Z,99057.00
2023-07-25T13:56:58.373Z,99050.84
2023-07-25T13:59:24.968Z,99036.50
2023-07-25T14:01:51.705Z,99045.09
2023-07-25T14:04:18.455Z,99016.59
2023-07-25T14:06:45.585Z,99028.31
2023-07-25T14:09:12.259Z,99023.91
2023-07-25T14:11:38.953Z,99035.25
2023-07-25T14:14:05.675Z,99023.34
2023-07-25T14:16:32.528Z,99014.69
2023-07-25T14:18:59.166Z,98980.72
2023-07-25T14:21:25.757Z,98956.81
2023-07-25T14:23:52.363Z,98944.22
2023-07-25T14:26:19.111Z,98965.66
2023-07-25T14:28:46.482Z,98969.56
2023-07-25T14:31:13.160Z,98983.16
2023-07-25T14:33:40.135Z,99001.56
2023-07-25T14:36:06.744Z,98990.34
2023-07-25T14:38:33.372Z,98972.97
2023-07-25T14:41:00.085Z,98949.47
2023-07-25T14:43:26.743Z,98860.63
2023-07-25T14:45:53.394Z,98804.22
2023-07-25T14:48:20.130Z,98802.34
2023-07-25T14:50:46.986Z,98818.03
2023-07-25T14:53:13.700Z,98823.06
2023-07-25T14:55:40.389Z,98803.19
2023-07-25T14:58:06.999Z,98813.16
2023-07-25T15:00:33.630Z,98806.84
2023-07-25T15:03:00.390Z,98830.97
2023-07-25T15:05:27.028Z,98859.16
2023-07-25T15:07:54.183Z,98862.34
2023-07-25T15:10:20.789Z,98850.72
2023-07-25T15:12:47.458Z,98848.50
2023-07-25T15:15:14.381Z,98854.47
2023-07-25T15:17:41.088Z,98855.28
2023-07-25T15:20:11.560Z,98872.75
2023-07-25T15:22:38.942Z,98864.41
2023-07-25T15:25:06.118Z,98871.78
2023-07-25T15:27:32.769Z,98872.91
2023-07-25T15:29:59.373Z,98889.41
2023-07-25T15:32:26.055Z,98880.84
2023-07-25T15:34:52.737Z,98879.25
2023-07-25T15:37:19.426Z,98906.53
2023-07-25T15:39:46.041Z,98911.25
2023-07-25T15:42:13.002Z,98926.94
2023-07-25T15:44:39.805Z,98933.34
2023-07-25T15:47:06.911Z,98935.84
2023-07-25T15:49:33.522Z,98935.13
2023-07-25T15:52:00.511Z,98944.66
2023-07-25T15:54:28.029Z,98943.94
2023-07-25T15:56:55.029Z,98944.06
2023-07-25T15:59:23.326Z,98949.25
2023-07-25T16:01:52.221Z,98932.22
2023-07-25T16:04:20.268Z,98932.00
2023-07-25T16:06:47.948Z,98937.22
2023-07-25T16:09:15.184Z,98925.38
2023-07-25T16:11:42.029Z,98924.53
2023-07-25T16:14:08.808Z,98925.34
2023-07-25T16:16:35.622Z,98925.09
2023-07-25T16:19:02.280Z,98915.50
2023-07-25T16:21:32.187Z,98924.59
2023-07-25T16:23:59.173Z,98933.13
2023-07-25T16:26:25.790Z,98939.91
2023-07-25T16:28:52.915Z,98947.16
2023-07-25T16:31:31.738Z,98949.81
2023-07-25T16:33:59.505Z,98958.63
2023-07-25T16:36:26.161Z,98969.31
2023-07-25T16:38:54.059Z,98971.09
2023-07-25T16:41:20.783Z,98967.44
2023-07-25T16:43:47.433Z,98966.91
2023-07-25T16:46:14.213Z,98970.00
2023-07-25T16:48:40.831Z,98967.75
2023-07-25T16:51:08.388Z,98966.41
2023-07-25T16:53:35.046Z,98970.88
2023-07-25T16:56:01.762Z,98963.13
2023-07-25T16:58:28.331Z,98979.72
2023-07-25T17:00:57.015Z,98980.84
2023-07-25T17:03:24.618Z,98979.16
2023-07-25T17:05:51.452Z,98996.25
2023-07-25T17:08:20.480Z,98992.03
2023-07-25T17:10:47.650Z,98989.13
2023-07-25T17:13:15.819Z,98990.44
2023-07-25T17:17:21.135Z,98981.91
2023-07-25T17:19:47.775Z,98991.78
2023-07-25T17:22:14.494Z,98987.06
2023-07-25T17:24:41.160Z,98989.75
2023-07-25T17:27:07.925Z,98996.00
2023-07-25T17:29:34.528Z,98989.41
2023-07-25T17:32:02.063Z,98999.59
2023-07-25T17:34:29.944Z,99008.91
2023-07-25T17:36:56.690Z,99006.56
2023-07-25T17:39:23.337Z,99013.25
2023-07-25T17:41:49.921Z,99010.91
2023-07-25T17:44:16.654Z,99022.06
2023-07-25T17:46:43.276Z,98997.06
2023-07-25T17:49:09.944Z,98986.91
2023-07-25T17:51:36.582Z,98982.97
2023-07-25T17:54:03.305Z,98985.66
2023-07-25T17:56:29.958Z,98977.69
2023-07-25T17:58:56.643Z,98973.16
2023-07-25T18:01:23.358Z,98981.56
2023-07-25T18:03:50.116Z,98977.63
2023-07-25T18:06:16.961Z,98975.13
2023-07-25T18:08:43.860Z,98962.78
2023-07-25T18:11:10.536Z,98958.22
2023-07-25T18:13:37.224Z,98948.97
2023-07-25T18:16:03.895Z,98948.06
2023-07-25T18:18:30.576Z,98948.31
2023-07-25T18:20:57.184Z,98939.97
2023-07-25T18:23:25.416Z,98954.44
2023-07-25T18:25:52.360Z,98962.34
2023-07-25T18:28:18.943Z,98964.53
2023-07-25T18:30:45.593Z,98968.56
2023-07-25T18:33:14.283Z,98974.22
2023-07-25T18:35:41.944Z,98985.41
2023-07-25T18:38:08.657Z,98990.22
2023-07-25T18:40:37.229Z,98994.19
2023-07-25T18:43:07.079Z,99000.84
2023-07-25T18:45:33.977Z,99012.38
2023-07-25T18:48:00.614Z,99019.94
2023-07-25T18:50:28.735Z,99031.06
2023-07-25T18:52:55.450Z,99032.78
2023-07-25T18:55:22.085Z,99029.63
2023-07-25T18:57:48.667Z,99018.56
2023-07-25T19:00:15.606Z,99025.84
2023-07-25T19:02:42.297Z,99011.72
2023-07-25T19:05:09.495Z,99010.25
2023-07-25T19:07:36.090Z,99014.44
2023-07-25T19:10:02.761Z,98999.44
2023-07-25T19:12:29.341Z,98998.63
2023-07-25T19:14:55.971Z,98992.31
2023-07-25T19:17:22.631Z,99004.63
2023-07-25T19:19:49.299Z,98999.63
2023-07-25T19:22:16.006Z,98997.97
2023-07-25T19:24:42.703Z,98991.41
2023-07-25T19:27:09.367Z,98994.75
2023-07-25T19:29:36.471Z,98996.41
2023-07-25T19:32:03.449Z,98992.84
2023-07-25T19:34:30.162Z,98992.03
2023-07-25T19:36:56.819Z,98986.22
2023-07-25T19:39:23.384Z,98981.34
2023-07-25T19:41:52.924Z,98982.56
2023-07-25T19:44:20.732Z,98990.34
2023-07-25T19:46:47.354Z,98981.75
2023-07-25T19:49:13.970Z,98977.00
2023-07-25T19:51:40.608Z,98978.94
2023-07-25T19:54:07.287Z,98991.31
2023-07-25T19:56:34.932Z,98998.78
2023-07-25T19:59:02.166Z,99001.78
2023-07-25T20:01:30.272Z,98994.28
2023-07-25T20:03:56.950Z,99005.72
2023-07-25T20:06:24.317Z,99005.94
2023-07-25T20:08:51.307Z,99006.19
2023-07-25T20:11:17.967Z,99008.81
2023-07-25T20:13:44.623Z,99002.72
2023-07-25T20:16:11.295Z,99012.69
2023-07-25T20:18:37.951Z,99008.56
2023-07-25T20:21:12.231Z,99008.78
2023-07-25T20:23:39.242Z,99012.84
2023-07-25T20:26:05.951Z,99007.25
2023-07-25T20:28:32.711Z,99003.09
2023-07-25T20:31:00.949Z,99002.84
2023-07-25T20:33:27.602Z,99002.25
2023-07-25T20:35:54.240Z,99004.75
2023-07-25T20:38:20.820Z,99003.66
2023-07-25T20:40:47.467Z,99010.06
2023-07-25T20:43:14.080Z,99009.13
2023-07-25T20:45:40.719Z,99019.22
2023-07-25T20:48:07.632Z,99022.97
2023-07-25T20:50:34.339Z,99022.88
2023-07-25T20:53:02.699Z,99033.69
2023-07-25T20:55:30.369Z,99040.75
2023-07-25T20:57:57.054Z,99037.66
2023-07-25T21:00:23.680Z,99035.63
2023-07-25T21:02:50.667Z,99034.56
2023-07-25T21:05:17.942Z,99038.16
2023-07-25T21:07:44.627Z,99039.88
2023-07-25T21:10:11.306Z,99045.56
2023-07-25T21:12:39.058Z,99047.16
2023-07-25T21:15:08.427Z,99050.88
2023-07-25T21:17:35.364Z,99054.78
2023-07-25T21:20:03.762Z,99072.25
2023-07-25T21:22:30.439Z,99075.53
2023-07-25T21:24:57.350Z,99087.06
2023-07-25T21:27:24.028Z,99097.22
2023-07-25T21:29:50.677Z,99091.03
2023-07-25T21:32:17.305Z,99079.03
2023-07-25T21:34:44.131Z,99079.63
2023-07-25T21:37:10.929Z,99084.03
2023-07-25T21:39:37.542Z,99075.03
2023-07-25T21:42:04.287Z,99085.34
2023-07-25T21:44:30.980Z,99083.81
2023-07-25T21:46:57.723Z,99096.78
2023-07-25T21:49:24.477Z,99081.81
2023-07-25T21:51:51.130Z,99078.88
2023-07-25T21:54:17.944Z,99078.50
2023-07-25T21:56:44.570Z,99083.72
2023-07-25T21:59:11.204Z,99076.47
2023-07-25T22:01:40.031Z,99081.75
2023-07-25T22:04:09.060Z,99094.81
2023-07-25T22:06:36.403Z,99103.81
2023-07-25T22:09:03.140Z,99096.25
2023-07-25T22:11:29.838Z,99081.97
2023-07-25T22:13:56.505Z,99072.34
2023-07-25T22:16:23.909Z,99069.25
2023-07-25T22:18:50.639Z,99078.13
2023-07-25T22:21:19.956Z,99093.44
2023-07-25T22:23:46.688Z,99092.59
2023-07-25T22:26:13.348Z,99085.31
2023-07-25T22:28:39.982Z,99085.56
2023-07-25T22:31:06.668Z,99086.59
2023-07-25T22:33:33.369Z,99068.56
2023-07-25T22:36:00.036Z,99052.81
2023-07-25T22:38:26.652Z,99032.03
2023-07-25T22:40:53.238Z,99028.50
2023-07-25T22:43:19.841Z,99018.88
2023-07-25T22:45:46.454Z,99014.00
2023-07-25T22:48:13.095Z,99023.03
2023-07-25T22:50:39.681Z,99007.75
2023-07-25T22:53:06.350Z,99005.00
2023-07-25T22:55:33.883Z,99009.25
2023-07-25T22:58:00.661Z,99001.97
2023-07-25T23:00:27.311Z,99001.84
2023-07-25T23:02:54.456Z,99013.00
2023-07-25T23:05:21.231Z,99019.06
2023-07-25T23:07:47.845Z,99012.91
2023-07-25T23:10:14.748Z,99002.84
2023-07-25T23:12:41.630Z,98997.63
2023-07-25T23:15:11.312Z,98993.75
2023-07-25T23:17:38.031Z,99010.41
2023-07-25T23:20:05.048Z,99008.94
2023-07-25T23:22:31.880Z,99000.19
2023-07-25T23:24:59.073Z,99001.25
2023-07-25T23:27:26.050Z,99004.19
2023-07-25T23:29:52.681Z,99009.03
2023-07-25T23:32:19.256Z,98997.28
2023-07-25T23:34:48.183Z,99008.41
2023-07-25T23:37:15.259Z,99018.72
2023-07-25T23:39:42.228Z,99018.94
2023-07-25T23:42:08.845Z,99029.19
2023-07-25T23:44:35.847Z,99036.50
2023-07-25T23:47:03.876Z,99067.72
2023-07-25T23:49:31.018Z,99097.47
2023-07-25T23:51:57.725Z,99109.03
2023-07-25T23:54:24.336Z,99116.63
2023-07-25T23:56:51.788Z,99120.81
2023-07-25T23:59:18.481Z,99126.63
